Time;durP1;ratioP1;P1;durP2;ratioP2;P2;SDS_P1;SDS_P2;PMS_P1;PMS_P2;Temp;Humidity;BMP_temperature;BMP_pressure;BME280_temperature;BME280_humidity;BME280_pressure;Samples;Min_cycle;Max_cycle;Signal;HPM_P1;HPM_P2
2022/06/15 00:01:16;;;;;;;6.95;3.90;;;17.40;59.30;;;;;;5013384;28;20033;-67
2022/06/15 00:03:43;;;;;;;5.25;3.88;;;17.40;59.60;;;;;;5016503;28;20057;-67
2022/06/15 00:06:11;;;;;;;5.80;4.00;;;17.40;59.50;;;;;;5014108;28;20065;-67
2022/06/15 00:08:38;;;;;;;6.25;4.35;;;17.40;59.70;;;;;;5019150;28;20628;-67
2022/06/15 00:11:10;;;;;;;4.47;3.97;;;17.30;59.70;;;;;;5013539;28;20049;-67
2022/06/15 00:13:36;;;;;;;5.15;3.90;;;17.30;60.10;;;;;;5016232;28;20123;-67
2022/06/15 00:16:03;;;;;;;5.72;3.67;;;17.30;59.70;;;;;;5012772;28;20041;-67
2022/06/15 00:18:30;;;;;;;5.38;4.00;;;17.20;60.00;;;;;;5015681;28;20512;-67
2022/06/15 00:20:57;;;;;;;6.78;4.28;;;17.20;59.70;;;;;;5014265;28;23146;-67
2022/06/15 00:23:23;;;;;;;5.75;3.70;;;17.10;60.00;;;;;;5017067;28;20033;-67
2022/06/15 00:25:52;;;;;;;4.85;4.10;;;17.10;60.00;;;;;;5017135;28;20116;-67
2022/06/15 00:28:19;;;;;;;4.22;3.60;;;17.00;60.30;;;;;;5015909;28;20026;-67
2022/06/15 00:30:45;;;;;;;5.45;3.95;;;17.00;60.20;;;;;;5014998;28;20037;-67
2022/06/15 00:33:11;;;;;;;4.20;3.80;;;17.00;60.50;;;;;;5015739;28;20287;-67
2022/06/15 00:35:38;;;;;;;5.78;4.05;;;16.90;60.60;;;;;;5013651;28;20038;-67
2022/06/15 00:38:04;;;;;;;5.40;3.90;;;16.90;60.80;;;;;;5015609;28;20547;-67
2022/06/15 00:40:30;;;;;;;4.20;3.80;;;16.90;61.00;;;;;;5014922;28;20034;-67
2022/06/15 00:42:56;;;;;;;4.20;3.80;;;16.80;60.80;;;;;;5015516;28;20544;-67
2022/06/15 00:45:21;;;;;;;6.65;3.92;;;16.80;61.00;;;;;;5013142;28;20036;-68
2022/06/15 00:47:47;;;;;;;3.90;3.60;;;16.80;61.10;;;;;;5015281;28;20034;-67
2022/06/15 00:50:20;;;;;;;4.80;3.50;;;16.70;61.10;;;;;;5013141;28;20037;-67
2022/06/15 00:52:54;;;;;;;8.05;3.70;;;16.70;61.60;;;;;;5012926;28;20473;-67
2022/06/15 00:55:27;;;;;;;4.20;3.73;;;16.60;62.00;;;;;;5010811;28;20036;-67
2022/06/15 00:57:53;;;;;;;5.38;4.32;;;16.60;61.90;;;;;;5013403;28;20025;-67
2022/06/15 01:00:20;;;;;;;4.20;3.80;;;16.50;61.70;;;;;;5018499;28;20109;-67
2022/06/15 01:02:46;;;;;;;4.70;3.70;;;16.50;62.00;;;;;;5014369;28;20500;-67
2022/06/15 01:05:40;;;;;;;4.10;3.80;;;16.40;61.70;;;;;;5015569;28;20303;-67
2022/06/15 01:08:17;;;;;;;4.50;4.10;;;16.40;64.10;;;;;;5008736;28;20033;-67
2022/06/15 01:11:05;;;;;;;4.90;3.75;;;16.30;62.80;;;;;;5014050;28;20056;-67
2022/06/15 01:13:49;;;;;;;5.85;3.78;;;16.30;62.90;;;;;;5016871;28;20045;-67
2022/06/15 01:16:40;;;;;;;4.25;3.80;;;16.20;63.40;;;;;;5012417;28;20087;-67
2022/06/15 01:19:27;;;;;;;5.68;3.90;;;16.20;63.30;;;;;;5014492;28;20033;-67
2022/06/15 01:22:11;;;;;;;4.30;3.90;;;16.10;62.70;;;;;;5011744;28;20033;-67
2022/06/15 01:24:36;;;;;;;4.10;3.72;;;16.10;64.30;;;;;;5015359;28;20034;-67
2022/06/15 01:27:39;;;;;;;4.28;3.88;;;16.00;63.00;;;;;;5014876;28;20053;-67
2022/06/15 01:30:23;;;;;;;5.13;4.30;;;16.00;64.30;;;;;;5013580;28;20129;-67
2022/06/15 01:33:12;;;;;;;5.10;4.60;;;16.00;63.30;;;;;;5015878;28;20360;-67
2022/06/15 01:36:03;;;;;;;6.63;4.43;;;15.90;64.60;;;;;;5013986;28;20041;-67
2022/06/15 01:38:38;;;;;;;4.50;4.10;;;15.90;64.30;;;;;;5013801;28;20143;-67
2022/06/15 01:41:31;;;;;;;4.15;3.63;;;15.80;63.60;;;;;;5014567;28;20114;-67
2022/06/15 01:44:02;;;;;;;4.22;3.67;;;15.70;64.40;;;;;;5012372;28;20041;-67
2022/06/15 01:46:29;;;;;;;5.40;4.25;;;15.70;64.80;;;;;;5013532;28;20497;-67
2022/06/15 01:48:56;;;;;;;4.95;4.45;;;15.60;64.10;;;;;;5014372;28;20048;-67
2022/06/15 01:51:30;;;;;;;4.72;4.18;;;15.60;64.40;;;;;;5011730;28;20073;-67
2022/06/15 01:54:01;;;;;;;4.95;3.88;;;15.60;64.70;;;;;;5012161;28;20163;-67
2022/06/15 01:56:45;;;;;;;6.95;5.30;;;15.50;64.70;;;;;;5014101;28;20043;-67
2022/06/15 01:59:16;;;;;;;5.05;4.55;;;15.50;65.90;;;;;;5012986;28;20037;-67
2022/06/15 02:02:05;;;;;;;4.85;4.32;;;15.50;64.80;;;;;;5011788;28;20122;-67
2022/06/15 02:04:45;;;;;;;7.97;4.05;;;15.50;66.10;;;;;;5014377;28;20038;-67
2022/06/15 02:07:28;;;;;;;4.50;3.65;;;15.50;65.50;;;;;;5013576;28;20034;-67
2022/06/15 02:09:59;;;;;;;4.53;3.70;;;15.40;65.30;;;;;;5013070;28;20037;-65
2022/06/15 02:13:04;;;;;;;5.30;4.15;;;15.30;65.20;;;;;;5007496;28;20525;-66
2022/06/15 02:15:30;;;;;;;4.65;4.00;;;15.30;65.80;;;;;;5015240;28;20082;-65
2022/06/15 02:18:04;;;;;;;4.82;4.30;;;15.20;65.10;;;;;;5012313;28;20030;-65
2022/06/15 02:20:36;;;;;;;4.50;4.10;;;15.20;66.00;;;;;;5011246;28;20083;-65
2022/06/15 02:23:04;;;;;;;4.65;4.25;;;15.10;65.50;;;;;;5012249;28;20121;-65
2022/06/15 02:25:38;;;;;;;4.32;3.90;;;15.10;65.70;;;;;;5012515;28;20142;-65
2022/06/15 02:28:04;;;;;;;5.63;4.40;;;15.10;66.60;;;;;;5010518;28;20034;-65
2022/06/15 02:30:31;;;;;;;4.95;4.47;;;15.00;65.90;;;;;;5012032;28;20038;-65
2022/06/15 02:33:13;;;;;;;4.47;4.07;;;15.00;66.00;;;;;;5013954;28;20049;-65
2022/06/15 02:35:40;;;;;;;4.47;4.07;;;15.00;67.60;;;;;;5008831;28;20098;-65
2022/06/15 02:38:05;;;;;;;6.63;4.40;;;14.90;66.20;;;;;;5013912;28;20037;-65
2022/06/15 02:40:31;;;;;;;7.75;4.80;;;14.90;66.30;;;;;;5014456;28;20041;-65
2022/06/15 02:43:00;;;;;;;6.55;4.75;;;14.80;66.50;;;;;;5012015;28;20033;-65
2022/06/15 02:45:30;;;;;;;5.32;4.80;;;14.80;66.90;;;;;;5012336;28;20034;-65
2022/06/15 02:47:57;;;;;;;8.48;4.85;;;14.70;66.90;;;;;;5015748;28;20460;-65
2022/06/15 02:50:27;;;;;;;5.90;4.78;;;14.70;66.80;;;;;;5009973;28;20244;-65
2022/06/15 02:53:03;;;;;;;5.43;4.80;;;14.70;67.10;;;;;;5007358;28;20037;-65
2022/06/15 02:55:30;;;;;;;5.55;4.38;;;14.70;67.20;;;;;;5012881;28;21578;-64
2022/06/15 02:58:15;;;;;;;6.15;4.68;;;14.70;66.90;;;;;;5013005;28;20202;-65
2022/06/15 03:00:41;;;;;;;;;;;14.70;68.20;;;;;;5010975;28;20026;-65
2022/06/15 03:03:07;;;;;;;5.85;4.57;;;14.70;67.40;;;;;;5016130;28;19917;-65
2022/06/15 03:05:33;;;;;;;6.93;4.55;;;14.60;67.30;;;;;;5012121;28;20567;-65
2022/06/15 03:07:59;;;;;;;5.88;5.13;;;14.60;67.00;;;;;;5010815;28;20073;-65
2022/06/15 03:10:24;;;;;;;5.18;4.40;;;14.50;67.50;;;;;;5009568;28;20081;-65
2022/06/15 03:12:50;;;;;;;5.75;5.15;;;14.50;67.90;;;;;;5017000;28;20040;-65
2022/06/15 03:15:16;;;;;;;6.07;5.15;;;14.50;68.10;;;;;;5015132;28;20045;-65
2022/06/15 03:17:41;;;;;;;5.30;4.80;;;14.50;68.20;;;;;;5014711;28;20124;-65
2022/06/15 03:20:09;;;;;;;6.03;4.70;;;14.50;68.00;;;;;;5015584;28;20037;-65
2022/06/15 03:22:35;;;;;;;6.10;4.47;;;14.40;68.10;;;;;;5015118;28;20045;-65
2022/06/15 03:25:02;;;;;;;6.25;4.80;;;14.40;68.30;;;;;;5016908;28;20095;-65
2022/06/15 03:27:28;;;;;;;5.07;4.47;;;14.40;68.40;;;;;;5011600;28;20037;-65
2022/06/15 03:29:54;;;;;;;7.63;5.10;;;14.40;68.50;;;;;;5013904;28;20042;-65
2022/06/15 03:32:19;;;;;;;5.70;4.80;;;14.40;68.60;;;;;;5014155;28;20068;-65
2022/06/15 03:34:45;;;;;;;4.95;4.45;;;14.40;68.50;;;;;;5014485;28;20423;-64
2022/06/15 03:37:11;;;;;;;4.55;4.13;;;14.40;68.50;;;;;;5015636;28;20037;-65
2022/06/15 03:39:37;;;;;;;4.88;4.18;;;14.40;68.50;;;;;;5017024;28;20049;-65
2022/06/15 03:42:14;;;;;;;4.90;4.30;;;14.40;68.50;;;;;;5017623;28;20079;-65
2022/06/15 03:44:41;;;;;;;6.32;4.82;;;14.40;69.20;;;;;;5018792;28;20440;-65
2022/06/15 03:47:16;;;;;;;6.10;4.38;;;14.50;68.80;;;;;;5018467;28;20033;-65
2022/06/15 03:49:48;;;;;;;6.63;4.40;;;14.50;68.70;;;;;;5017909;28;20084;-65
2022/06/15 03:52:14;;;;;;;5.95;4.80;;;14.50;68.60;;;;;;5015352;28;20033;-65
2022/06/15 03:54:41;;;;;;;5.38;4.72;;;14.50;68.50;;;;;;5014233;28;20416;-65
2022/06/15 03:57:06;;;;;;;5.45;4.90;;;14.40;68.60;;;;;;5016807;28;20028;-65
2022/06/15 03:59:32;;;;;;;6.93;4.90;;;14.30;68.70;;;;;;5015772;28;20037;-65
2022/06/15 04:01:58;;;;;;;9.25;4.97;;;14.30;69.00;;;;;;5018078;28;20677;-65
2022/06/15 04:04:24;;;;;;;7.97;4.88;;;14.30;69.20;;;;;;5014098;28;20041;-67
2022/06/15 04:06:50;;;;;;;7.00;5.05;;;14.30;69.30;;;;;;5019218;28;20030;-67
2022/06/15 04:09:21;;;;;;;10.75;4.68;;;14.20;69.50;;;;;;5019216;28;20247;-65
2022/06/15 04:11:59;;;;;;;6.50;4.80;;;14.20;69.80;;;;;;5014422;28;20052;-65
2022/06/15 04:14:31;;;;;;;7.60;5.20;;;14.10;71.30;;;;;;5015832;28;20046;-65
2022/06/15 04:16:57;;;;;;;5.93;4.78;;;14.20;70.50;;;;;;5015322;28;20034;-65
2022/06/15 04:19:26;;;;;;;9.02;5.05;;;14.10;69.90;;;;;;5015333;28;20030;-65
2022/06/15 04:21:52;;;;;;;6.82;5.13;;;14.20;70.20;;;;;;5012857;28;20025;-65
2022/06/15 04:24:18;;;;;;;7.88;5.10;;;14.20;70.10;;;;;;5012157;28;20559;-65
2022/06/15 04:26:46;;;;;;;6.13;5.25;;;14.20;70.20;;;;;;5008295;28;20099;-65
2022/06/15 04:29:11;;;;;;;6.80;5.40;;;14.30;70.50;;;;;;5007733;28;20040;-65
2022/06/15 04:31:38;;;;;;;6.97;4.55;;;14.30;70.40;;;;;;5011709;28;20042;-65
2022/06/15 04:34:05;;;;;;;7.82;5.28;;;14.30;71.10;;;;;;5013024;28;20405;-65
2022/06/15 04:36:30;;;;;;;8.48;5.63;;;14.40;70.60;;;;;;5011687;28;20051;-64
2022/06/15 04:38:57;;;;;;;7.57;6.03;;;14.40;70.60;;;;;;5012732;28;20038;-65
2022/06/15 04:41:22;;;;;;;8.68;5.93;;;14.40;70.60;;;;;;5008862;28;20038;-65
2022/06/15 04:43:48;;;;;;;8.68;5.80;;;14.50;70.60;;;;;;5014718;28;20416;-65
2022/06/15 04:46:14;;;;;;;7.63;5.18;;;14.50;70.60;;;;;;5011221;28;20092;-67
2022/06/15 04:48:41;;;;;;;10.10;5.50;;;14.50;70.70;;;;;;5014626;28;20054;-68
2022/06/15 04:51:21;;;;;;;9.55;5.95;;;14.60;70.70;;;;;;5015062;28;20037;-65
2022/06/15 04:53:48;;;;;;;6.20;5.32;;;14.60;72.60;;;;;;5017049;28;20082;-65
2022/06/15 04:56:14;;;;;;;8.35;5.63;;;14.70;70.90;;;;;;5015957;28;20037;-65
2022/06/15 04:58:40;;;;;;;7.45;5.63;;;14.80;70.90;;;;;;5013607;28;20026;-65
2022/06/15 05:01:07;;;;;;;10.80;5.75;;;14.90;71.10;;;;;;5014783;28;20052;-66
2022/06/15 05:03:33;;;;;;;7.43;5.75;;;14.90;71.20;;;;;;5014825;28;20041;-65
2022/06/15 05:05:59;;;;;;;7.22;5.70;;;15.00;71.20;;;;;;5014837;28;20040;-65
2022/06/15 05:08:25;;;;;;;8.07;5.93;;;15.10;71.30;;;;;;5015855;28;20033;-66
2022/06/15 05:10:51;;;;;;;6.13;5.53;;;15.10;71.30;;;;;;5014534;28;20076;-65
2022/06/15 05:13:16;;;;;;;9.13;5.68;;;15.20;71.10;;;;;;5015535;28;20025;-65
2022/06/15 05:15:42;;;;;;;7.95;6.18;;;15.30;70.90;;;;;;5011718;28;20123;-65
2022/06/15 05:18:09;;;;;;;7.55;5.80;;;15.40;71.00;;;;;;5016417;28;20042;-66
2022/06/15 05:20:39;;;;;;;6.93;5.60;;;15.50;70.90;;;;;;5013450;28;20034;-65
2022/06/15 05:23:05;;;;;;;7.78;6.00;;;15.60;72.10;;;;;;5014999;28;20041;-66
2022/06/15 05:25:32;;;;;;;7.65;6.32;;;15.70;70.90;;;;;;5014099;28;20037;-65
2022/06/15 05:27:57;;;;;;;6.57;5.88;;;15.80;70.90;;;;;;5014998;28;20039;-66
2022/06/15 05:30:23;;;;;;;8.65;6.13;;;15.90;70.90;;;;;;5015830;28;20592;-66
2022/06/15 05:32:48;;;;;;;8.05;6.00;;;16.00;70.90;;;;;;5012707;28;20041;-66
2022/06/15 05:35:15;;;;;;;6.30;5.70;;;16.10;71.10;;;;;;5016200;28;20038;-66
2022/06/15 05:37:41;;;;;;;7.03;5.85;;;16.20;70.70;;;;;;5016083;28;20484;-66
2022/06/15 05:40:07;;;;;;;7.18;6.00;;;16.30;70.40;;;;;;5019118;28;20044;-65
2022/06/15 05:42:34;;;;;;;7.13;5.50;;;16.40;70.00;;;;;;5013713;28;20069;-64
2022/06/15 05:45:02;;;;;;;6.65;5.63;;;16.50;69.70;;;;;;5013072;28;20061;-66
2022/06/15 05:47:27;;;;;;;6.72;5.82;;;16.60;69.30;;;;;;5015502;28;20033;-65
2022/06/15 05:49:53;;;;;;;6.43;5.75;;;16.70;69.20;;;;;;5011202;28;20041;-66
2022/06/15 05:52:19;;;;;;;7.72;4.93;;;16.90;68.70;;;;;;5012544;28;20095;-66
2022/06/15 05:54:44;;;;;;;7.80;5.80;;;17.00;68.50;;;;;;5012987;28;20416;-65
2022/06/15 05:57:20;;;;;;;6.47;5.57;;;17.00;68.50;;;;;;5012133;28;20111;-65
2022/06/15 05:59:47;;;;;;;7.05;5.85;;;17.10;68.00;;;;;;5011045;28;20297;-66
2022/06/15 06:02:15;;;;;;;7.10;5.75;;;17.20;68.10;;;;;;5009832;28;20342;-66
2022/06/15 06:04:40;;;;;;;8.73;5.63;;;17.30;67.50;;;;;;5011255;28;20029;-66
2022/06/15 06:07:06;;;;;;;6.30;5.68;;;17.40;67.10;;;;;;5009675;28;20034;-66
2022/06/15 06:09:32;;;;;;;7.22;5.78;;;17.50;67.10;;;;;;5011397;28;20034;-66
2022/06/15 06:11:58;;;;;;;8.13;5.55;;;17.60;66.70;;;;;;5009728;28;20044;-66
2022/06/15 06:14:24;;;;;;;7.68;5.43;;;17.70;66.80;;;;;;5010295;28;20037;-66
2022/06/15 06:16:50;;;;;;;6.70;5.50;;;17.80;66.60;;;;;;5012942;28;20108;-67
2022/06/15 06:19:15;;;;;;;6.32;5.25;;;17.90;66.20;;;;;;5014291;28;20048;-66
2022/06/15 06:21:43;;;;;;;7.90;5.82;;;17.90;66.20;;;;;;5012975;28;20034;-66
2022/06/15 06:24:09;;;;;;;6.40;5.10;;;18.00;66.00;;;;;;5009844;28;20099;-66
2022/06/15 06:26:36;;;;;;;7.22;5.60;;;18.10;66.00;;;;;;5010103;28;20050;-66
2022/06/15 06:29:03;;;;;;;7.97;5.80;;;18.20;65.90;;;;;;5009842;28;20084;-66
2022/06/15 06:31:29;;;;;;;7.82;5.70;;;18.30;65.60;;;;;;5008495;28;20037;-66
2022/06/15 06:33:55;;;;;;;8.57;6.20;;;18.30;65.30;;;;;;5011970;28;20037;-66
2022/06/15 06:36:31;;;;;;;6.15;5.30;;;18.40;65.30;;;;;;5009552;28;20441;-66
2022/06/15 06:38:59;;;;;;;7.25;5.95;;;18.40;65.40;;;;;;5007008;28;20072;-66
2022/06/15 06:41:26;;;;;;;8.38;6.07;;;18.40;65.50;;;;;;5012024;28;20037;-66
2022/06/15 06:43:52;;;;;;;5.68;5.07;;;18.50;65.30;;;;;;5010244;28;20029;-66
2022/06/15 06:46:19;;;;;;;9.10;5.93;;;18.60;65.30;;;;;;5011581;28;20508;-66
2022/06/15 06:48:45;;;;;;;6.32;5.32;;;18.60;65.30;;;;;;5011194;28;20127;-66
2022/06/15 06:51:11;;;;;;;7.20;5.65;;;18.70;66.20;;;;;;5010560;28;20030;-66
2022/06/15 06:53:37;;;;;;;7.30;5.40;;;18.80;65.30;;;;;;5011996;28;20045;-66
2022/06/15 06:56:05;;;;;;;6.28;5.35;;;18.80;64.80;;;;;;5007494;28;20091;-67
2022/06/15 06:58:31;;;;;;;6.70;6.00;;;18.90;64.50;;;;;;5009759;28;20030;-66
2022/06/15 07:00:57;;;;;;;8.73;5.22;;;19.00;64.30;;;;;;5012491;28;20045;-66
2022/06/15 07:03:23;;;;;;;7.88;5.47;;;19.10;64.50;;;;;;5010864;28;20396;-66
2022/06/15 07:05:49;;;;;;;7.00;5.85;;;19.20;64.50;;;;;;5010372;28;20030;-66
2022/06/15 07:08:15;;;;;;;7.32;5.97;;;19.30;64.50;;;;;;5012896;28;20661;-66
2022/06/15 07:10:41;;;;;;;9.38;5.70;;;19.30;64.10;;;;;;5002624;28;20890;-66
2022/06/15 07:13:07;;;;;;;10.50;5.85;;;19.40;64.10;;;;;;5012843;28;20056;-66
2022/06/15 07:15:33;;;;;;;8.32;6.10;;;19.50;63.70;;;;;;5010669;28;20045;-65
2022/06/15 07:18:01;;;;;;;7.45;6.00;;;19.60;63.20;;;;;;5011135;28;20051;-66
2022/06/15 07:20:30;;;;;;;7.38;5.68;;;19.70;62.80;;;;;;5012985;28;20496;-67
2022/06/15 07:22:57;;;;;;;8.00;5.53;;;19.80;62.60;;;;;;5009947;28;20056;-66
2022/06/15 07:25:23;;;;;;;8.35;5.50;;;19.80;62.40;;;;;;5009814;28;20044;-66
2022/06/15 07:27:49;;;;;;;6.28;5.38;;;19.90;62.80;;;;;;5013257;28;20429;-66
2022/06/15 07:30:19;;;;;;;6.88;5.32;;;20.00;62.90;;;;;;5013655;28;20057;-66
2022/06/15 07:32:45;;;;;;;8.07;5.18;;;20.10;62.70;;;;;;5013486;28;20090;-66
2022/06/15 07:35:19;;;;;;;7.32;5.65;;;20.20;62.90;;;;;;4988387;28;20046;-65
2022/06/15 07:37:45;;;;;;;9.73;5.22;;;20.30;62.70;;;;;;5003186;28;20402;-66
2022/06/15 07:40:12;;;;;;;6.50;5.38;;;20.40;62.60;;;;;;5008624;28;20113;-66
2022/06/15 07:42:38;;;;;;;7.95;5.35;;;20.60;62.30;;;;;;5012487;28;20108;-66
2022/06/15 07:45:04;;;;;;;7.68;5.30;;;20.70;61.90;;;;;;5011076;28;20038;-66
2022/06/15 07:50:15;;;;;;;8.20;6.00;;;21.00;61.50;;;;;;5011022;28;20543;-66
2022/06/15 07:52:43;;;;;;;7.38;4.78;;;21.10;61.20;;;;;;5011509;28;20034;-66
2022/06/15 07:55:11;;;;;;;6.32;4.85;;;21.20;61.10;;;;;;5011919;28;20600;-66
2022/06/15 07:57:37;;;;;;;5.15;4.65;;;21.30;61.20;;;;;;5010671;28;20041;-66
2022/06/15 08:00:09;;;;;;;9.68;5.07;;;21.40;61.20;;;;;;5012739;28;20057;-66
2022/06/15 08:02:34;;;;;;;10.30;4.65;;;21.60;60.50;;;;;;5008705;28;20038;-66
2022/06/15 08:05:00;;;;;;;11.25;4.57;;;21.70;60.80;;;;;;5012848;28;20455;-65
2022/06/15 08:07:26;;;;;;;13.05;4.57;;;21.90;60.80;;;;;;5012976;28;20034;-66
2022/06/15 08:09:52;;;;;;;11.40;5.03;;;22.00;60.60;;;;;;5011083;28;20604;-67
2022/06/15 08:12:19;;;;;;;8.73;4.47;;;22.10;60.20;;;;;;5012421;28;20037;-66
2022/06/15 08:14:54;;;;;;;10.23;4.35;;;22.30;60.10;;;;;;5012178;28;20045;-66
2022/06/15 08:17:36;;;;;;;13.68;4.60;;;22.40;59.70;;;;;;5013127;28;20029;-66
2022/06/15 08:20:09;;;;;;;12.80;4.35;;;22.60;59.40;;;;;;5012133;28;20073;-66
2022/06/15 08:22:39;;;;;;;16.73;4.55;;;22.70;59.30;;;;;;5013254;28;20435;-66
2022/06/15 08:25:07;;;;;;;9.88;4.47;;;22.80;59.50;;;;;;5016792;28;20048;-65
2022/06/15 08:27:33;;;;;;;10.38;3.95;;;23.00;59.70;;;;;;5013612;28;20029;-66
2022/06/15 08:29:58;;;;;;;13.05;4.00;;;23.10;59.40;;;;;;5017467;28;20045;-67
2022/06/15 08:32:24;;;;;;;10.48;4.40;;;23.20;59.20;;;;;;5015045;28;20032;-66
2022/06/15 08:34:50;;;;;;;11.85;3.78;;;23.40;59.10;;;;;;5013495;28;20504;-67
2022/06/15 08:37:17;;;;;;;73.88;6.55;;;23.50;58.70;;;;;;5011666;28;20038;-66
2022/06/15 08:39:43;;;;;;;7.88;3.63;;;23.60;58.70;;;;;;5007717;28;20033;-67
2022/06/15 08:42:20;;;;;;;5.28;3.58;;;23.80;59.00;;;;;;5014181;28;20529;-67
2022/06/15 08:44:57;;;;;;;6.05;3.72;;;23.90;58.40;;;;;;5013398;28;20489;-66
2022/06/15 08:47:44;;;;;;;5.93;3.58;;;24.10;58.20;;;;;;5013649;28;20357;-66
2022/06/15 08:50:37;;;;;;;5.88;3.85;;;24.20;57.90;;;;;;5011568;28;20033;-66
2022/06/15 08:53:33;;;;;;;7.57;3.50;;;24.40;57.70;;;;;;5010113;28;20068;-66
2022/06/15 08:56:10;;;;;;;4.53;3.65;;;24.50;57.50;;;;;;5009703;28;20038;-66
2022/06/15 08:58:45;;;;;;;5.53;3.13;;;24.60;57.70;;;;;;5014713;28;20060;-66
2022/06/15 09:01:37;;;;;;;4.50;3.40;;;24.70;57.20;;;;;;5013581;28;20107;-66
2022/06/15 09:04:29;;;;;;;5.60;3.65;;;24.90;56.30;;;;;;5013793;28;20038;-66
2022/06/15 09:07:16;;;;;;;4.45;3.15;;;25.00;56.30;;;;;;5011635;28;20586;-67
2022/06/15 09:10:17;;;;;;;6.57;3.03;;;25.10;55.90;;;;;;5007371;28;20128;-67
2022/06/15 09:13:00;;;;;;;3.72;2.90;;;25.20;56.30;;;;;;5028627;28;20033;-66
2022/06/15 09:15:48;;;;;;;4.68;2.75;;;25.40;56.00;;;;;;5013775;28;20052;-66
2022/06/15 09:18:22;;;;;;;4.47;3.00;;;25.60;55.80;;;;;;5010286;28;20571;-66
2022/06/15 09:21:13;;;;;;;4.30;2.75;;;25.60;55.70;;;;;;5009822;28;20064;-66
2022/06/15 09:24:05;;;;;;;6.97;3.97;;;25.80;56.00;;;;;;5013370;28;20043;-67
2022/06/15 09:26:42;;;;;;;4.25;3.40;;;26.00;54.40;;;;;;5013485;28;20025;-67
2022/06/15 09:29:18;;;;;;;7.70;3.38;;;26.10;54.40;;;;;;5015313;28;20083;-67
2022/06/15 09:31:51;;;;;;;5.13;3.30;;;26.20;54.20;;;;;;5014739;28;20404;-67
2022/06/15 09:34:25;;;;;;;2.75;2.20;;;26.30;54.10;;;;;;5015674;28;20042;-66
2022/06/15 09:36:55;;;;;;;;;;;26.40;52.50;;;;;;5015803;28;20444;-67
2022/06/15 09:39:20;;;;;;;;;;;26.50;52.90;;;;;;5014788;28;19916;-67
2022/06/15 09:41:52;;;;;;;;;;;26.60;53.30;;;;;;5015853;28;19916;-67
2022/06/15 09:44:22;;;;;;;;;;;26.70;53.20;;;;;;5016834;28;19917;-67
2022/06/15 09:46:54;;;;;;;;;;;26.80;53.50;;;;;;5016905;28;19917;-66
2022/06/15 09:49:21;;;;;;;;;;;27.00;51.60;;;;;;5016243;28;20407;-67
2022/06/15 09:51:59;;;;;;;;;;;27.10;51.90;;;;;;5011876;28;19913;-67
2022/06/15 09:54:47;;;;;;;;;;;27.20;51.70;;;;;;5013571;28;20011;-67
2022/06/15 09:57:13;;;;;;;;;;;27.30;51.50;;;;;;5016884;28;19967;-67
2022/06/15 09:59:39;;;;;;;;;;;27.40;51.60;;;;;;5014318;28;19924;-67
2022/06/15 10:02:15;;;;;;;;;;;27.50;51.70;;;;;;5013001;28;19965;-67
2022/06/15 10:04:40;;;;;;;;;;;27.50;51.70;;;;;;5013820;28;20300;-67
2022/06/15 10:07:11;;;;;;;;;;;27.70;51.70;;;;;;5014085;28;19917;-66
2022/06/15 10:09:39;;;;;;;;;;;27.70;51.00;;;;;;5015567;28;19919;-67
2022/06/15 10:15:12;;;;;;;;;;;27.90;48.10;;;;;;5011061;28;19943;-67
2022/06/15 10:17:40;;;;;;;;;;;28.00;50.40;;;;;;5015028;28;19925;-67
2022/06/15 10:20:05;;;;;;;;;;;28.10;50.30;;;;;;5015062;28;19922;-67
2022/06/15 10:22:33;;;;;;;;;;;28.10;48.60;;;;;;5013391;28;19917;-67
2022/06/15 10:25:01;;;;;;;;;;;28.20;48.20;;;;;;5015950;28;20078;-67
2022/06/15 10:27:27;;;;;;;;;;;28.30;47.50;;;;;;5013407;28;19963;-67
2022/06/15 10:30:00;;;;;;;;;;;28.40;47.70;;;;;;5017387;28;19917;-67
2022/06/15 10:32:26;;;;;;;;;;;28.40;49.10;;;;;;5014911;28;20542;-67
2022/06/15 10:34:52;;;;;;;;;;;28.50;48.40;;;;;;5013504;28;20403;-67
2022/06/15 10:37:27;;;;;;;;;;;28.50;47.00;;;;;;5011444;28;19944;-67
2022/06/15 10:39:54;;;;;;;;;;;28.60;48.30;;;;;;5010838;28;20435;-67
2022/06/15 10:42:19;;;;;;;;;;;28.70;48.60;;;;;;5014906;28;20300;-67
2022/06/15 10:44:51;;;;;;;;;;;28.80;47.50;;;;;;5014672;28;19920;-67
2022/06/15 10:47:22;;;;;;;;;;;28.80;48.30;;;;;;5008602;28;19917;-67
2022/06/15 10:49:59;;;;;;;;;;;28.90;44.80;;;;;;5009887;28;19917;-67
2022/06/15 10:52:32;;;;;;;;;;;28.90;46.70;;;;;;5011921;28;19917;-68
2022/06/15 11:04:05;;;;;;;;;;;29.20;48.60;;;;;;5014235;28;20363;-67
2022/06/15 11:06:37;;;;;;;;;;;29.30;48.50;;;;;;5013972;28;19925;-67
2022/06/15 11:09:06;;;;;;;;;;;29.40;47.60;;;;;;5014464;28;20658;-67
2022/06/15 11:11:34;;;;;;;;;;;29.50;48.10;;;;;;5011161;28;19939;-67
2022/06/15 11:14:05;;;;;;;;;;;29.60;47.00;;;;;;5013655;28;20003;-67
2022/06/15 11:19:17;;;;;;;;;;;29.70;45.50;;;;;;5014002;28;19925;-67
2022/06/15 11:21:46;;;;;;;;;;;29.90;47.20;;;;;;5013548;28;19917;-67
2022/06/15 11:24:20;;;;;;;;;;;29.90;43.30;;;;;;5014359;28;19939;-67
2022/06/15 11:26:51;;;;;;;;;;;30.00;46.50;;;;;;5013103;28;19972;-67
2022/06/15 11:29:36;;;;;;;;;;;30.00;46.70;;;;;;5013867;28;19917;-67
2022/06/15 11:32:25;;;;;;;;;;;30.10;46.60;;;;;;5013950;28;20395;-67
2022/06/15 11:35:13;;;;;;;;;;;30.20;46.90;;;;;;5014557;28;19927;-68
2022/06/15 11:37:42;;;;;;;;;;;30.30;45.20;;;;;;5012871;28;20015;-67
2022/06/15 11:40:14;;;;;;;;;;;30.30;40.40;;;;;;5010871;28;20443;-66
2022/06/15 11:42:40;;;;;;;;;;;30.40;40.90;;;;;;5006432;28;19921;-67
2022/06/15 11:45:12;;;;;;;;;;;30.40;41.00;;;;;;5014764;28;20385;-67
2022/06/15 11:47:49;;;;;;;;;;;30.40;43.20;;;;;;5011040;28;19921;-67
2022/06/15 11:50:31;;;;;;;;;;;30.40;44.50;;;;;;5012526;28;19920;-67
2022/06/15 11:53:09;;;;;;;;;;;30.40;44.30;;;;;;5012077;28;19917;-67
2022/06/15 11:55:42;;;;;;;;;;;30.60;43.20;;;;;;5012374;28;19927;-67
2022/06/15 11:58:23;;;;;;;;;;;30.60;43.50;;;;;;5013088;28;19914;-67
2022/06/15 12:00:52;;;;;;;;;;;30.70;43.20;;;;;;5017435;28;19916;-67
2022/06/15 12:03:18;;;;;;;;;;;30.70;44.70;;;;;;5016520;28;20465;-67
2022/06/15 12:05:50;;;;;;;;;;;30.80;43.30;;;;;;5014367;28;19975;-67
2022/06/15 12:08:34;;;;;;;;;;;30.90;44.30;;;;;;5014030;28;19917;-67
2022/06/15 12:11:00;;;;;;;;;;;30.90;40.10;;;;;;5011153;28;19918;-67
2022/06/15 12:13:25;;;;;;;;;;;30.90;41.70;;;;;;5017224;28;19917;-67
2022/06/15 12:15:55;;;;;;;;;;;30.90;44.40;;;;;;5017147;28;19924;-67
2022/06/15 12:18:23;;;;;;;;;;;30.90;44.60;;;;;;5014118;22;20287;-66
2022/06/15 12:21:04;;;;;;;;;;;30.90;43.30;;;;;;4998084;28;19918;-67
2022/06/15 12:23:30;;;;;;;;;;;30.90;42.70;;;;;;4977179;22;19926;-67
2022/06/15 12:26:12;;;;;;;;;;;30.90;42.40;;;;;;4965255;28;19920;-67
2022/06/15 12:28:41;;;;;;;;;;;31.00;42.40;;;;;;4956583;28;19918;-67
2022/06/15 12:31:12;;;;;;;;;;;31.10;42.90;;;;;;4947955;28;19914;-67
2022/06/15 12:33:41;;;;;;;;;;;31.10;42.40;;;;;;4948833;28;20294;-67
2022/06/15 12:36:06;;;;;;;;;;;31.20;43.60;;;;;;4948180;28;19929;-67
2022/06/15 12:38:41;;;;;;;;;;;31.20;40.30;;;;;;4948423;28;19919;-67
2022/06/15 12:41:07;;;;;;;;;;;31.30;41.30;;;;;;4947279;28;20000;-67
2022/06/15 12:43:38;;;;;;;;;;;31.30;40.70;;;;;;4946371;28;19981;-67
2022/06/15 12:46:04;;;;;;;;;;;31.40;38.60;;;;;;4948085;28;19929;-67
2022/06/15 12:48:38;;;;;;;;;;;31.40;38.70;;;;;;4946987;28;19915;-67
2022/06/15 12:51:27;;;;;;;;;;;31.40;41.50;;;;;;4949442;28;19914;-67
2022/06/15 12:54:01;;;;;;;;;;;31.40;40.80;;;;;;4945193;28;19925;-67
2022/06/15 12:56:32;;;;;;;;;;;31.40;41.10;;;;;;4941044;28;20383;-67
2022/06/15 12:59:07;;;;;;;;;;;31.40;36.80;;;;;;4956574;28;19914;-67
2022/06/15 13:01:39;;;;;;;;;;;31.40;36.10;;;;;;4961709;28;19918;-67
2022/06/15 13:04:15;;;;;;;;;;;31.40;38.30;;;;;;4946228;28;19915;-68
2022/06/15 13:06:41;;;;;;;;;;;31.40;39.70;;;;;;4941816;28;20663;-67
2022/06/15 13:09:09;;;;;;;;;;;31.50;39.80;;;;;;4940848;28;20144;-68
2022/06/15 13:11:46;;;;;;;;;;;31.50;40.40;;;;;;4944280;28;19965;-67
2022/06/15 13:14:14;;;;;;;;;;;31.60;42.30;;;;;;4944399;28;19962;-66
2022/06/15 13:16:42;;;;;;;;;;;31.60;37.90;;;;;;4941414;28;19919;-67
2022/06/15 13:19:09;;;;;;;;;;;31.70;40.70;;;;;;4946284;28;20554;-67
2022/06/15 13:21:53;;;;;;;;;;;31.70;38.90;;;;;;4943573;28;19918;-67
2022/06/15 13:24:19;;;;;;;;;;;31.80;37.30;;;;;;4963502;28;19923;-67
2022/06/15 13:26:49;;;;;;;;;;;31.80;36.50;;;;;;4935253;28;20596;-67
2022/06/15 13:29:19;;;;;;;;;;;31.80;35.60;;;;;;4949237;28;20374;-67
2022/06/15 13:31:53;;;;;;;;;;;31.90;37.20;;;;;;4948129;28;19945;-66
2022/06/15 13:34:33;;;;;;;;;;;31.80;37.10;;;;;;4933584;28;20249;-67
2022/06/15 13:37:14;;;;;;;;;;;31.80;39.80;;;;;;4941361;28;20451;-67
2022/06/15 13:39:43;;;;;;;;;;;31.90;39.90;;;;;;5002721;23;20620;-67
2022/06/15 13:42:27;;;;;;;;;;;31.90;39.30;;;;;;5016460;28;19964;-67
2022/06/15 13:44:55;;;;;;;;;;;32.00;38.30;;;;;;5016311;28;20404;-67
2022/06/15 13:47:23;;;;;;;;;;;32.00;38.00;;;;;;5050869;28;19912;-67